Time;durP1;ratioP1;P1;durP2;ratioP2;P2;SDS_P1;SDS_P2;PMS_P1;PMS_P2;Temp;Humidity;BMP_temperature;BMP_pressure;BME280_temperature;BME280_humidity;BME280_pressure;Samples;Min_cycle;Max_cycle;Signal;HPM_P1;HPM_P2
2021/03/03 00:02:05;;;;;;;13.87;8.60;;;2.80;90.50;;;;;;5042972;28;20247;-82
2021/03/03 00:04:31;;;;;;;16.63;8.83;;;2.90;90.50;;;;;;5042876;28;20367;-82
2021/03/03 00:06:58;;;;;;;15.77;9.27;;;2.80;90.50;;;;;;5042076;28;20204;-84
2021/03/03 00:09:24;;;;;;;14.77;8.97;;;2.90;90.50;;;;;;5032722;28;20225;-85
2021/03/03 00:11:50;;;;;;;16.17;9.53;;;2.80;90.40;;;;;;5042289;28;20564;-83
2021/03/03 00:14:17;;;;;;;13.10;8.70;;;2.80;90.30;;;;;;5040932;28;20284;-83
2021/03/03 00:16:43;;;;;;;14.83;8.43;;;2.80;90.40;;;;;;5035659;28;20197;-85
2021/03/03 00:19:09;;;;;;;14.63;9.00;;;2.80;90.30;;;;;;5033752;28;20205;-84
2021/03/03 00:21:36;;;;;;;12.50;8.43;;;2.70;90.40;;;;;;5039243;28;20206;-84
2021/03/03 00:24:03;;;;;;;12.33;8.40;;;2.70;90.40;;;;;;5043514;28;20682;-84
2021/03/03 00:26:30;;;;;;;12.97;8.97;;;2.70;90.40;;;;;;5037465;28;20205;-82
2021/03/03 00:28:56;;;;;;;15.03;8.37;;;2.70;90.30;;;;;;5043954;28;20848;-82
2021/03/03 00:31:23;;;;;;;14.10;9.17;;;2.70;90.50;;;;;;5038598;28;20225;-83
2021/03/03 00:33:49;;;;;;;15.10;9.07;;;2.50;90.70;;;;;;5041273;28;20205;-84
2021/03/03 00:36:16;;;;;;;16.63;8.63;;;2.40;90.90;;;;;;5042153;28;20228;-82
2021/03/03 00:38:42;;;;;;;14.90;8.80;;;2.40;91.10;;;;;;5047842;28;20400;-82
2021/03/03 00:41:09;;;;;;;16.73;9.07;;;2.40;91.30;;;;;;5040222;28;20224;-84
2021/03/03 00:43:36;;;;;;;12.97;8.80;;;2.40;91.10;;;;;;5041544;28;20236;-82
2021/03/03 00:46:03;;;;;;;14.03;9.07;;;2.50;91.00;;;;;;5041559;28;20243;-82
2021/03/03 00:48:29;;;;;;;14.30;8.67;;;2.50;90.90;;;;;;5047299;28;20197;-83
2021/03/03 00:50:56;;;;;;;15.10;8.80;;;2.50;90.90;;;;;;5040934;28;21021;-82
2021/03/03 00:53:23;;;;;;;15.77;8.87;;;2.50;90.90;;;;;;5035950;28;20211;-82
2021/03/03 00:55:53;;;;;;;14.47;9.17;;;2.50;90.80;;;;;;5043030;28;20433;-82
2021/03/03 00:58:20;;;;;;;20.70;10.43;;;2.50;90.90;;;;;;5044009;28;20291;-85
2021/03/03 01:00:47;;;;;;;17.07;9.83;;;2.40;90.80;;;;;;5032430;28;20216;-84
2021/03/03 01:03:13;;;;;;;22.80;12.53;;;2.40;90.90;;;;;;5033983;28;20257;-82
2021/03/03 01:05:40;;;;;;;16.97;10.03;;;2.40;90.90;;;;;;5036580;28;20221;-84
2021/03/03 01:08:07;;;;;;;13.37;9.30;;;2.30;90.80;;;;;;5033823;28;20552;-83
2021/03/03 01:10:33;;;;;;;16.37;8.80;;;2.30;90.80;;;;;;5047087;28;20237;-79
2021/03/03 01:13:00;;;;;;;14.70;9.87;;;2.20;90.90;;;;;;5024658;28;20204;-82
2021/03/03 01:15:27;;;;;;;15.63;9.23;;;2.20;91.10;;;;;;5042313;28;20216;-84
2021/03/03 01:17:59;;;;;;;13.43;9.00;;;2.20;91.10;;;;;;5049256;28;20208;-80
2021/03/03 01:20:26;;;;;;;13.37;7.97;;;2.20;91.10;;;;;;5044719;28;20224;-80
2021/03/03 01:22:52;;;;;;;16.80;9.73;;;2.20;91.10;;;;;;5050593;28;20707;-83
2021/03/03 01:25:18;;;;;;;12.83;8.53;;;2.20;91.30;;;;;;5039779;28;20229;-81
2021/03/03 01:27:45;;;;;;;16.50;8.43;;;2.20;91.30;;;;;;5050384;28;20202;-80
2021/03/03 01:30:12;;;;;;;16.10;9.37;;;2.20;91.40;;;;;;5037314;28;20229;-79
2021/03/03 01:32:39;;;;;;;14.50;8.63;;;2.10;91.30;;;;;;5041969;28;20593;-80
2021/03/03 01:35:07;;;;;;;14.63;8.73;;;2.10;91.60;;;;;;5044164;28;20288;-81
2021/03/03 01:37:33;;;;;;;14.70;7.90;;;2.00;91.60;;;;;;5047951;28;20200;-79
2021/03/03 01:39:59;;;;;;;13.07;8.30;;;2.00;91.30;;;;;;5050137;28;20248;-80
2021/03/03 01:42:25;;;;;;;11.23;8.43;;;1.90;91.30;;;;;;5048763;28;20208;-80
2021/03/03 01:44:52;;;;;;;13.40;8.47;;;1.80;91.70;;;;;;5040783;28;20254;-83
2021/03/03 01:47:18;;;;;;;15.30;8.70;;;1.80;91.90;;;;;;5050115;28;20208;-84
2021/03/03 01:49:45;;;;;;;14.77;7.47;;;1.80;91.80;;;;;;5038211;28;20230;-82
2021/03/03 01:52:13;;;;;;;12.33;8.17;;;1.90;91.50;;;;;;5043088;28;20215;-84
2021/03/03 01:54:39;;;;;;;14.13;8.53;;;1.90;91.40;;;;;;5045189;28;20642;-82
2021/03/03 01:57:06;;;;;;;13.70;8.13;;;1.90;91.20;;;;;;5050324;28;20204;-82
2021/03/03 01:59:33;;;;;;;12.17;8.07;;;1.90;91.00;;;;;;5043189;28;20633;-80
2021/03/03 02:01:59;;;;;;;10.40;7.40;;;2.00;91.10;;;;;;5051864;28;20657;-79
2021/03/03 02:04:25;;;;;;;12.13;6.87;;;1.90;91.00;;;;;;5046680;28;20231;-80
2021/03/03 02:07:02;;;;;;;15.33;7.87;;;1.90;90.90;;;;;;5045302;28;20194;-81
2021/03/03 02:09:37;;;;;;;12.97;8.13;;;1.90;91.10;;;;;;5042567;28;20230;-79
2021/03/03 02:12:10;;;;;;;12.47;7.50;;;1.90;91.00;;;;;;5043296;28;20203;-80
2021/03/03 02:14:38;;;;;;;13.87;7.43;;;1.80;90.90;;;;;;5044314;28;20243;-81
2021/03/03 02:17:04;;;;;;;13.73;8.20;;;1.80;91.00;;;;;;5040645;28;20208;-82
2021/03/03 02:19:36;;;;;;;12.30;7.43;;;1.70;91.40;;;;;;5054732;28;20770;-83
2021/03/03 02:22:10;;;;;;;13.30;7.30;;;1.70;91.30;;;;;;5042517;28;20215;-81
2021/03/03 02:24:45;;;;;;;13.63;7.20;;;1.50;91.30;;;;;;5042399;28;20232;-84
2021/03/03 02:27:12;;;;;;;11.13;7.13;;;1.30;91.70;;;;;;5040566;28;20250;-81
2021/03/03 02:29:39;;;;;;;12.73;7.33;;;1.30;92.20;;;;;;5046834;28;20228;-80
2021/03/03 02:32:06;;;;;;;10.10;6.63;;;1.40;92.00;;;;;;5049354;28;20247;-80
2021/03/03 02:34:33;;;;;;;12.53;6.67;;;1.40;91.90;;;;;;5048001;28;20239;-80
2021/03/03 02:37:00;;;;;;;12.97;7.03;;;1.50;91.60;;;;;;5048045;28;20210;-80
2021/03/03 02:39:29;;;;;;;9.77;6.77;;;1.60;91.50;;;;;;5045488;28;20227;-81
2021/03/03 02:41:56;;;;;;;12.57;6.70;;;1.60;91.40;;;;;;5044756;28;20297;-81
2021/03/03 02:44:24;;;;;;;10.37;6.30;;;1.60;91.20;;;;;;5048419;28;20270;-80
2021/03/03 02:46:51;;;;;;;10.90;6.57;;;1.70;91.10;;;;;;5042023;28;20293;-81
2021/03/03 02:49:20;;;;;;;10.90;6.47;;;1.70;90.90;;;;;;5039601;28;20214;-80
2021/03/03 02:51:46;;;;;;;10.47;6.43;;;1.70;90.70;;;;;;5039588;28;20199;-81
2021/03/03 02:54:13;;;;;;;9.67;6.53;;;1.70;90.80;;;;;;5040555;28;20205;-81
2021/03/03 02:56:40;;;;;;;9.67;6.17;;;1.70;90.60;;;;;;5037300;28;20195;-84
2021/03/03 02:59:17;;;;;;;10.13;6.90;;;1.70;90.80;;;;;;5042336;28;20194;-83
2021/03/03 03:01:47;;;;;;;9.87;6.10;;;1.70;90.90;;;;;;5038526;28;20205;-81
2021/03/03 03:04:17;;;;;;;10.00;6.93;;;1.70;90.80;;;;;;5039755;28;20222;-82
2021/03/03 03:06:45;;;;;;;9.80;6.17;;;1.60;90.90;;;;;;5052734;28;20203;-80
2021/03/03 03:09:15;;;;;;;14.07;6.90;;;1.60;91.00;;;;;;5048860;28;20198;-79
2021/03/03 03:11:47;;;;;;;10.03;6.40;;;1.70;91.10;;;;;;5041000;28;20206;-84
2021/03/03 03:14:15;;;;;;;11.90;7.13;;;1.70;91.00;;;;;;5035026;28;20197;-80
2021/03/03 03:16:44;;;;;;;10.60;6.40;;;1.60;90.80;;;;;;5044832;28;20232;-80
2021/03/03 03:19:14;;;;;;;9.83;6.97;;;1.70;90.60;;;;;;5034757;28;20613;-82
2021/03/03 03:21:44;;;;;;;10.70;6.40;;;1.70;90.60;;;;;;5045167;28;20194;-81
2021/03/03 03:24:12;;;;;;;10.80;7.20;;;1.70;90.60;;;;;;5035570;28;20588;-81
2021/03/03 03:26:39;;;;;;;10.93;7.00;;;1.70;90.70;;;;;;5047427;28;20623;-83
2021/03/03 03:29:08;;;;;;;8.77;6.27;;;1.70;90.50;;;;;;5041453;28;20558;-80
2021/03/03 03:31:35;;;;;;;8.80;6.23;;;1.60;90.60;;;;;;5045122;28;20793;-80
2021/03/03 03:34:02;;;;;;;9.53;6.70;;;1.60;90.50;;;;;;5040530;28;20229;-80
2021/03/03 03:36:31;;;;;;;12.67;6.47;;;1.50;90.60;;;;;;5045982;28;20198;-79
2021/03/03 03:38:57;;;;;;;10.37;6.73;;;1.50;90.50;;;;;;5036353;28;20195;-82
2021/03/03 03:41:25;;;;;;;10.40;6.50;;;1.40;90.70;;;;;;5036056;28;20222;-80
2021/03/03 03:43:53;;;;;;;10.90;6.87;;;1.40;91.00;;;;;;5040113;28;20230;-82
2021/03/03 03:46:21;;;;;;;9.50;5.90;;;1.40;90.90;;;;;;5040193;28;20227;-80
2021/03/03 03:48:47;;;;;;;8.83;6.00;;;1.40;90.80;;;;;;5038209;28;20199;-80
2021/03/03 03:51:14;;;;;;;11.10;6.60;;;1.40;90.70;;;;;;5042002;28;20226;-79
2021/03/03 03:53:40;;;;;;;12.93;6.30;;;1.30;90.90;;;;;;5039564;28;20206;-79
2021/03/03 03:56:08;;;;;;;12.07;6.27;;;1.40;90.60;;;;;;5046959;28;20594;-80
2021/03/03 03:58:34;;;;;;;10.27;6.03;;;1.30;90.60;;;;;;5039611;28;20557;-83
2021/03/03 04:01:00;;;;;;;9.73;6.70;;;1.30;90.60;;;;;;5038007;28;20657;-80
2021/03/03 04:03:27;;;;;;;10.27;6.17;;;1.30;90.90;;;;;;5039264;28;20230;-80
2021/03/03 04:05:53;;;;;;;9.10;5.93;;;1.30;90.80;;;;;;5046287;28;20234;-79
2021/03/03 04:08:20;;;;;;;12.27;6.37;;;1.30;90.80;;;;;;5039122;28;20186;-80
2021/03/03 04:10:46;;;;;;;9.60;5.93;;;1.30;90.80;;;;;;5042903;28;20225;-81
2021/03/03 04:13:13;;;;;;;9.00;5.93;;;1.30;90.80;;;;;;5041178;28;20228;-81
2021/03/03 04:15:39;;;;;;;9.20;6.03;;;1.20;90.70;;;;;;5043172;28;20218;-84
2021/03/03 04:18:06;;;;;;;10.27;5.83;;;1.10;91.00;;;;;;5037017;28;20198;-82
2021/03/03 04:20:32;;;;;;;8.97;6.13;;;1.00;91.40;;;;;;5037779;28;20689;-80
2021/03/03 04:22:59;;;;;;;10.93;6.40;;;0.90;91.40;;;;;;5051311;28;20270;-79
2021/03/03 04:25:26;;;;;;;9.67;6.13;;;0.90;91.80;;;;;;5045043;28;20710;-80
2021/03/03 04:27:52;;;;;;;8.40;6.00;;;1.00;91.70;;;;;;5035935;28;20198;-80
2021/03/03 04:30:20;;;;;;;9.73;5.80;;;1.10;91.40;;;;;;5038973;28;20222;-80
2021/03/03 04:32:46;;;;;;;9.03;5.60;;;1.20;91.00;;;;;;5057685;28;20208;-80
2021/03/03 04:35:12;;;;;;;8.83;5.57;;;1.20;90.80;;;;;;5041200;28;20286;-80
2021/03/03 04:37:39;;;;;;;9.87;5.77;;;1.20;90.70;;;;;;5045358;28;20208;-80
2021/03/03 04:40:07;;;;;;;8.57;5.53;;;1.20;90.60;;;;;;5040097;28;20421;-81
2021/03/03 04:42:34;;;;;;;8.60;5.30;;;1.20;90.90;;;;;;5037072;28;20649;-79
2021/03/03 04:45:01;;;;;;;10.73;6.03;;;1.20;90.80;;;;;;5044527;28;20238;-81
2021/03/03 04:47:27;;;;;;;8.63;5.47;;;1.20;90.70;;;;;;5046624;28;20206;-79
2021/03/03 04:49:53;;;;;;;8.73;5.53;;;1.20;90.70;;;;;;5049677;28;20226;-80
2021/03/03 04:52:19;;;;;;;10.17;6.50;;;1.20;90.60;;;;;;5045166;28;20208;-80
2021/03/03 04:54:46;;;;;;;11.77;5.97;;;1.20;90.70;;;;;;5044714;28;20230;-81
2021/03/03 04:57:12;;;;;;;9.37;5.60;;;1.20;90.90;;;;;;5042582;28;20195;-81
2021/03/03 04:59:39;;;;;;;9.67;5.57;;;1.20;90.80;;;;;;5043941;28;20222;-81
2021/03/03 05:02:07;;;;;;;10.30;5.90;;;1.10;90.90;;;;;;5042628;28;20190;-80
2021/03/03 05:04:33;;;;;;;7.70;5.23;;;1.00;91.00;;;;;;5042282;28;20242;-80
2021/03/03 05:06:59;;;;;;;8.07;5.30;;;1.10;91.00;;;;;;5054390;28;20194;-80
2021/03/03 05:09:26;;;;;;;11.17;5.30;;;1.10;90.70;;;;;;5048504;28;20229;-80
2021/03/03 05:11:52;;;;;;;7.77;4.87;;;1.10;90.90;;;;;;5037328;28;20593;-80
2021/03/03 05:14:18;;;;;;;7.57;5.50;;;1.10;90.80;;;;;;5049267;28;20206;-80
2021/03/03 05:16:45;;;;;;;9.20;5.37;;;1.10;90.80;;;;;;5047437;28;20623;-84
2021/03/03 05:19:12;;;;;;;11.10;5.53;;;1.10;90.80;;;;;;5039260;28;20491;-80
2021/03/03 05:21:38;;;;;;;7.57;5.07;;;1.20;90.70;;;;;;5048312;28;20201;-80
2021/03/03 05:24:05;;;;;;;7.37;4.97;;;1.10;90.90;;;;;;5036934;28;20233;-83
2021/03/03 05:26:32;;;;;;;8.13;4.97;;;1.20;90.80;;;;;;5045978;28;20195;-80
2021/03/03 05:28:58;;;;;;;6.90;4.87;;;1.20;90.90;;;;;;5043745;28;20205;-81
2021/03/03 05:31:25;;;;;;;8.43;4.83;;;1.20;90.50;;;;;;5046714;28;20244;-80
2021/03/03 05:33:52;;;;;;;6.97;4.50;;;1.10;90.60;;;;;;5053897;28;20210;-79
2021/03/03 05:36:18;;;;;;;6.37;4.60;;;1.20;90.80;;;;;;5047238;28;20705;-81
2021/03/03 05:38:44;;;;;;;6.77;4.50;;;1.10;90.40;;;;;;5047517;28;20205;-80
2021/03/03 05:41:11;;;;;;;6.67;4.47;;;1.20;90.30;;;;;;5034931;28;20218;-80
2021/03/03 05:43:38;;;;;;;6.93;4.90;;;1.20;90.30;;;;;;5038108;28;20198;-79
2021/03/03 05:46:05;;;;;;;11.90;5.57;;;1.20;90.60;;;;;;5041376;28;20218;-81
2021/03/03 05:48:37;;;;;;;6.70;4.40;;;1.20;90.50;;;;;;5040642;28;20220;-79
2021/03/03 05:51:07;;;;;;;8.47;4.30;;;1.30;90.30;;;;;;5042982;28;20237;-80
2021/03/03 05:53:34;;;;;;;5.40;4.00;;;1.30;90.20;;;;;;5040183;28;20202;-80
2021/03/03 05:56:02;;;;;;;6.83;4.50;;;1.30;90.30;;;;;;5042715;28;21129;-83
2021/03/03 05:58:31;;;;;;;8.00;4.83;;;1.30;90.20;;;;;;5044630;28;20194;-83
2021/03/03 06:00:58;;;;;;;6.07;4.43;;;1.40;90.30;;;;;;5043862;28;20692;-82
2021/03/03 06:03:25;;;;;;;6.33;5.03;;;1.40;90.10;;;;;;5045609;28;20666;-83
2021/03/03 06:05:52;;;;;;;8.83;4.77;;;1.40;90.10;;;;;;5044270;28;20234;-83
2021/03/03 06:08:21;;;;;;;6.53;4.67;;;1.40;90.20;;;;;;5045527;28;20206;-81
2021/03/03 06:10:48;;;;;;;6.20;4.30;;;1.50;90.30;;;;;;5045907;28;20220;-84
2021/03/03 06:13:15;;;;;;;7.10;4.80;;;1.60;90.10;;;;;;5044821;28;20212;-84
2021/03/03 06:15:41;;;;;;;7.43;4.73;;;1.70;89.20;;;;;;5044718;28;20518;-83
2021/03/03 06:18:10;;;;;;;8.33;5.30;;;1.80;88.10;;;;;;5044314;28;20204;-82
2021/03/03 06:20:39;;;;;;;9.27;4.50;;;1.90;87.00;;;;;;5041850;28;20234;-81
2021/03/03 06:23:22;;;;;;;13.20;5.67;;;2.00;87.10;;;;;;5046208;28;20227;-82
2021/03/03 06:26:08;;;;;;;7.23;4.80;;;2.10;87.10;;;;;;5030955;28;20254;-84
2021/03/03 06:28:35;;;;;;;12.63;5.90;;;2.10;87.20;;;;;;5033244;28;20193;-85
2021/03/03 06:31:22;;;;;;;10.63;4.80;;;2.30;87.30;;;;;;5043006;28;20224;-83
2021/03/03 06:33:48;;;;;;;8.63;4.63;;;2.40;86.40;;;;;;5046834;28;20728;-85
2021/03/03 06:36:20;;;;;;;12.40;4.83;;;2.50;85.60;;;;;;5039844;28;20646;-86
2021/03/03 06:38:47;;;;;;;10.57;4.37;;;2.70;85.00;;;;;;5037556;28;20195;-85
2021/03/03 06:41:13;;;;;;;12.70;4.77;;;2.80;84.70;;;;;;5041216;28;20324;-86
2021/03/03 06:43:40;;;;;;;8.50;4.43;;;3.00;82.70;;;;;;5039931;28;20202;-87
2021/03/03 06:46:18;;;;;;;7.73;4.53;;;3.10;82.20;;;;;;5036023;28;20217;-85
2021/03/03 06:48:45;;;;;;;7.13;4.83;;;3.20;82.00;;;;;;5038989;28;20531;-84
2021/03/03 06:51:25;;;;;;;12.03;4.80;;;3.30;82.70;;;;;;5044617;28;20229;-83
2021/03/03 06:53:54;;;;;;;7.87;4.97;;;3.40;82.20;;;;;;5038286;28;20327;-84
2021/03/03 06:56:38;;;;;;;14.73;5.00;;;3.40;81.60;;;;;;5040139;28;20228;-84
2021/03/03 06:59:12;;;;;;;13.13;5.90;;;3.50;82.10;;;;;;5044986;28;20199;-84
2021/03/03 07:01:39;;;;;;;10.93;4.27;;;3.60;82.40;;;;;;5040912;28;20548;-83
2021/03/03 07:04:27;;;;;;;9.97;5.17;;;3.60;82.70;;;;;;5038600;28;20230;-86
2021/03/03 07:06:55;;;;;;;9.23;4.23;;;3.70;82.20;;;;;;5041967;28;20187;-82
2021/03/03 07:09:25;;;;;;;16.40;5.30;;;3.80;81.40;;;;;;5034583;28;20665;-81
2021/03/03 07:12:01;;;;;;;9.53;4.90;;;3.80;81.10;;;;;;5039816;28;20198;-82
2021/03/03 07:14:28;;;;;;;11.53;4.57;;;3.90;80.90;;;;;;5037207;28;20232;-82
2021/03/03 07:17:10;;;;;;;7.97;4.13;;;4.00;80.60;;;;;;5041104;28;20632;-82
2021/03/03 07:19:39;;;;;;;6.23;3.67;;;4.20;80.20;;;;;;5039706;28;20230;-83
2021/03/03 07:22:19;;;;;;;10.43;4.50;;;4.30;79.00;;;;;;5056543;28;20261;-83
2021/03/03 07:24:47;;;;;;;9.77;4.53;;;4.40;78.80;;;;;;5039230;28;20695;-82
2021/03/03 07:27:18;;;;;;;12.60;4.57;;;4.30;79.50;;;;;;5041973;28;20194;-83
2021/03/03 07:29:48;;;;;;;7.40;4.30;;;4.30;80.00;;;;;;5042650;28;20881;-83
2021/03/03 07:32:14;;;;;;;8.73;4.40;;;4.50;78.40;;;;;;5048081;28;20279;-83
2021/03/03 07:34:41;;;;;;;13.13;4.70;;;4.70;77.10;;;;;;5038705;28;20226;-81
2021/03/03 07:37:09;;;;;;;11.53;4.77;;;4.90;77.60;;;;;;5036095;28;20198;-82
2021/03/03 07:39:54;;;;;;;9.03;4.27;;;5.10;76.10;;;;;;5043906;28;20225;-82
2021/03/03 07:42:29;;;;;;;18.30;4.40;;;5.20;75.40;;;;;;5044255;28;20197;-84
2021/03/03 07:44:58;;;;;;;18.63;4.53;;;5.50;75.90;;;;;;5037507;28;20217;-89
2021/03/03 07:47:26;;;;;;;14.23;5.23;;;5.50;74.70;;;;;;5031344;28;20292;-88
2021/03/03 07:49:58;;;;;;;11.83;4.50;;;5.70;74.80;;;;;;5033008;28;20224;-85
2021/03/03 07:52:25;;;;;;;13.07;4.93;;;5.90;75.80;;;;;;5038481;28;20199;-87
2021/03/03 07:54:58;;;;;;;10.73;4.33;;;6.30;75.10;;;;;;5036600;28;20726;-86
2021/03/03 07:57:25;;;;;;;10.17;4.47;;;6.80;71.70;;;;;;5037338;28;20202;-87
2021/03/03 07:59:53;;;;;;;11.47;4.83;;;7.20;69.00;;;;;;5042188;28;20267;-85
2021/03/03 08:02:20;;;;;;;12.33;5.70;;;7.50;67.50;;;;;;5039487;28;20220;-88
2021/03/03 08:04:46;;;;;;;13.67;5.47;;;7.70;66.40;;;;;;5039309;28;20245;-86
2021/03/03 08:07:18;;;;;;;8.67;5.13;;;7.90;66.40;;;;;;5045249;28;20193;-85
2021/03/03 08:10:28;;;;;;;21.05;6.50;;;7.90;66.70;;;;;;5052280;28;20229;-85
2021/03/03 08:13:12;;;;;;;14.50;5.17;;;8.10;65.60;;;;;;5043504;28;20223;-85
2021/03/03 08:15:42;;;;;;;14.20;5.50;;;8.30;61.10;;;;;;5039416;28;20222;-88
2021/03/03 08:18:26;;;;;;;13.65;5.13;;;8.40;56.70;;;;;;5049410;28;20672;-85
2021/03/03 08:20:54;;;;;;;12.02;5.20;;;8.50;57.50;;;;;;5048194;28;20280;-85
2021/03/03 08:23:40;;;;;;;16.00;4.88;;;8.70;59.90;;;;;;5046292;28;20222;-85
2021/03/03 08:26:11;;;;;;;9.38;4.85;;;8.80;59.20;;;;;;5047775;28;20237;-85
2021/03/03 08:28:39;;;;;;;15.80;4.70;;;8.90;59.80;;;;;;5046334;28;20210;-85
2021/03/03 08:31:32;;;;;;;8.05;4.60;;;8.90;56.30;;;;;;5047833;28;20325;-86
2021/03/03 08:34:07;;;;;;;6.57;4.13;;;9.00;56.50;;;;;;5054570;28;20201;-86
2021/03/03 08:36:54;;;;;;;22.05;4.60;;;9.10;53.70;;;;;;5050289;28;20221;-85
2021/03/03 08:39:29;;;;;;;11.27;4.40;;;9.10;56.00;;;;;;5050398;28;20332;-85
2021/03/03 08:41:55;;;;;;;19.60;4.45;;;9.30;56.00;;;;;;5052568;28;20201;-86
2021/03/03 08:44:23;;;;;;;32.55;22.67;;;9.40;56.70;;;;;;5056023;28;20221;-85
2021/03/03 08:46:50;;;;;;;12.13;7.22;;;9.50;55.10;;;;;;5044722;28;20553;-85
2021/03/03 08:49:31;;;;;;;12.05;4.70;;;9.60;52.60;;;;;;5051187;28;20281;-85
2021/03/03 08:52:09;;;;;;;8.38;4.40;;;9.80;52.20;;;;;;5050964;28;20224;-86
2021/03/03 08:54:42;;;;;;;19.00;5.15;;;10.00;52.10;;;;;;5054662;28;20261;-86
2021/03/03 08:57:37;;;;;;;10.10;4.30;;;10.20;48.20;;;;;;5049395;28;20202;-86
2021/03/03 09:00:10;;;;;;;8.93;4.65;;;10.40;47.10;;;;;;5045813;28;20264;-88
2021/03/03 09:02:38;;;;;;;8.48;4.15;;;10.60;47.30;;;;;;5049846;28;20208;-85
2021/03/03 09:05:10;;;;;;;5.90;4.10;;;10.70;47.50;;;;;;5042480;28;20234;-88
2021/03/03 09:07:36;;;;;;;12.15;3.70;;;10.90;46.80;;;;;;5038580;28;20615;-88
2021/03/03 09:10:09;;;;;;;6.13;3.33;;;10.90;45.50;;;;;;5039502;28;20226;-88
2021/03/03 09:12:39;;;;;;;12.55;4.03;;;11.20;45.30;;;;;;5047840;28;20197;-88
2021/03/03 09:15:09;;;;;;;6.15;3.60;;;11.50;43.70;;;;;;5045254;28;20233;-87
2021/03/03 09:17:36;;;;;;;8.82;3.38;;;11.90;40.30;;;;;;5048161;28;20212;-89
2021/03/03 09:20:06;;;;;;;8.88;3.30;;;12.20;39.50;;;;;;5044131;28;20575;-90
2021/03/03 09:22:34;;;;;;;6.90;3.20;;;12.60;37.70;;;;;;5048505;28;20234;-88
2021/03/03 09:25:08;;;;;;;8.68;4.13;;;12.90;37.90;;;;;;5044345;28;20502;-89
2021/03/03 09:27:34;;;;;;;7.63;3.40;;;12.90;36.70;;;;;;5042020;28;20230;-90
2021/03/03 09:30:01;;;;;;;4.18;3.13;;;13.00;36.60;;;;;;5056500;28;20221;-87
2021/03/03 09:32:29;;;;;;;8.75;3.38;;;13.20;35.70;;;;;;5043480;28;20205;-88
2021/03/03 09:35:02;;;;;;;10.50;3.50;;;13.20;34.40;;;;;;5047197;28;20229;-89
2021/03/03 09:37:36;;;;;;;4.78;3.25;;;13.20;35.10;;;;;;5046052;28;20194;-86
2021/03/03 09:40:04;;;;;;;6.65;3.25;;;13.40;34.20;;;;;;5045514;28;20230;-87
2021/03/03 09:42:38;;;;;;;7.30;3.72;;;13.60;33.60;;;;;;5050223;28;20201;-89
2021/03/03 09:45:07;;;;;;;6.80;4.00;;;13.80;32.60;;;;;;5042153;28;20229;-88
2021/03/03 09:47:36;;;;;;;10.50;4.10;;;13.80;34.10;;;;;;5046336;28;20194;-88
2021/03/03 09:50:07;;;;;;;7.07;3.53;;;14.00;33.70;;;;;;5039483;28;20495;-86
2021/03/03 09:52:38;;;;;;;9.73;4.00;;;13.90;32.30;;;;;;5043712;28;20606;-89
2021/03/03 09:55:08;;;;;;;8.15;4.13;;;14.00;33.10;;;;;;5042431;28;20249;-90
2021/03/03 09:57:34;;;;;;;11.77;4.05;;;14.30;33.30;;;;;;5041906;28;20191;-89
2021/03/03 10:00:01;;;;;;;8.57;4.30;;;14.60;31.20;;;;;;5036045;28;20639;-89
2021/03/03 10:02:29;;;;;;;5.53;4.13;;;14.70;30.60;;;;;;5039725;28;20244;-87
2021/03/03 10:04:58;;;;;;;8.65;4.18;;;14.50;32.90;;;;;;5046118;28;20230;-87
2021/03/03 10:07:26;;;;;;;8.50;4.50;;;15.10;29.90;;;;;;5044214;28;20661;-86
2021/03/03 10:09:55;;;;;;;14.57;4.32;;;15.50;28.30;;;;;;5043669;28;20226;-90
2021/03/03 10:12:24;;;;;;;14.35;4.93;;;15.60;29.70;;;;;;5045459;28;20459;-86
2021/03/03 10:15:02;;;;;;;7.25;4.57;;;15.40;28.30;;;;;;5049536;28;20234;-86
2021/03/03 10:17:30;;;;;;;9.15;4.78;;;15.20;30.40;;;;;;5055697;28;20190;-85
2021/03/03 10:19:58;;;;;;;8.50;4.60;;;15.20;28.00;;;;;;5045222;28;20229;-86
2021/03/03 10:22:25;;;;;;;9.80;4.93;;;15.30;28.10;;;;;;5049463;28;20222;-86
2021/03/03 10:24:59;;;;;;;8.35;4.88;;;15.20;28.80;;;;;;5050774;28;20245;-86
2021/03/03 10:27:28;;;;;;;10.20;4.85;;;15.50;29.40;;;;;;5049464;28;20577;-86
2021/03/03 10:29:55;;;;;;;10.02;4.80;;;15.60;28.30;;;;;;5046214;28;20225;-86
2021/03/03 10:32:22;;;;;;;6.50;4.53;;;15.70;29.50;;;;;;5046605;28;20194;-86
2021/03/03 10:34:48;;;;;;;10.48;5.15;;;15.70;28.40;;;;;;5048075;28;20237;-86
2021/03/03 10:37:26;;;;;;;12.38;4.97;;;15.80;28.60;;;;;;5057048;28;20202;-86
2021/03/03 10:39:53;;;;;;;8.00;5.18;;;15.50;28.30;;;;;;5046834;28;20232;-86
2021/03/03 10:42:24;;;;;;;6.00;4.60;;;15.10;28.00;;;;;;5049257;28;20261;-85
2021/03/03 10:44:53;;;;;;;8.90;4.90;;;15.30;28.10;;;;;;5052794;28;20306;-85
2021/03/03 10:47:38;;;;;;;9.23;4.40;;;15.50;28.30;;;;;;5052588;28;20198;-86
2021/03/03 10:50:07;;;;;;;7.03;4.55;;;15.40;27.00;;;;;;5051751;28;20283;-85
2021/03/03 10:52:35;;;;;;;9.75;4.60;;;15.40;28.20;;;;;;5048882;28;20191;-86
2021/03/03 10:55:02;;;;;;;5.40;4.50;;;15.80;27.30;;;;;;5048538;28;20222;-85
2021/03/03 10:57:28;;;;;;;6.97;4.20;;;15.60;26.40;;;;;;5049664;28;20209;-85
2021/03/03 11:00:05;;;;;;;8.98;4.32;;;15.60;28.20;;;;;;5044953;28;20226;-85
2021/03/03 11:02:32;;;;;;;6.47;3.67;;;15.60;28.30;;;;;;5048824;28;20280;-84
2021/03/03 11:04:59;;;;;;;6.18;4.03;;;15.80;28.50;;;;;;5045989;28;20233;-83
2021/03/03 11:07:25;;;;;;;5.78;4.10;;;16.20;27.00;;;;;;5042936;28;20198;-84
2021/03/03 11:09:53;;;;;;;9.05;3.72;;;16.10;27.40;;;;;;5039324;28;20222;-84
2021/03/03 11:12:22;;;;;;;11.68;3.80;;;16.20;28.00;;;;;;5047386;28;20205;-84
2021/03/03 11:14:49;;;;;;;9.70;4.40;;;16.20;28.10;;;;;;5045154;28;20268;-84
2021/03/03 11:17:15;;;;;;;9.77;4.47;;;16.10;27.30;;;;;;5041837;28;20206;-83
2021/03/03 11:19:42;;;;;;;13.23;4.32;;;16.00;28.70;;;;;;5046426;28;20225;-84
2021/03/03 11:22:09;;;;;;;7.15;3.90;;;16.20;27.20;;;;;;5055562;28;20225;-84
2021/03/03 11:24:35;;;;;;;4.93;4.10;;;16.10;24.90;;;;;;5052093;28;20282;-84
2021/03/03 11:27:02;;;;;;;6.63;4.30;;;16.20;27.10;;;;;;5043583;28;20735;-85
2021/03/03 11:29:29;;;;;;;5.63;4.10;;;16.00;26.10;;;;;;5043414;28;20227;-89
2021/03/03 11:31:55;;;;;;;7.60;4.32;;;16.10;28.70;;;;;;5042295;28;20769;-84
2021/03/03 11:34:21;;;;;;;10.10;5.03;;;16.10;26.60;;;;;;5047075;28;20198;-85
2021/03/03 11:36:50;;;;;;;4.93;4.40;;;16.20;25.70;;;;;;5048816;28;20562;-84
2021/03/03 11:39:16;;;;;;;9.07;5.63;;;16.10;27.20;;;;;;5047634;28;20198;-84
2021/03/03 11:41:44;;;;;;;8.30;4.82;;;15.90;27.50;;;;;;5043067;28;20695;-85
2021/03/03 11:44:12;;;;;;;8.63;5.53;;;15.60;28.30;;;;;;5045699;28;20202;-85
2021/03/03 11:46:38;;;;;;;6.97;5.13;;;15.90;27.90;;;;;;5044985;28;20204;-84
2021/03/03 11:49:04;;;;;;;5.60;5.10;;;16.00;27.00;;;;;;5047203;28;20677;-83
2021/03/03 11:51:33;;;;;;;8.45;5.25;;;15.80;29.60;;;;;;5046983;28;20229;-84
2021/03/03 11:53:59;;;;;;;7.53;5.93;;;15.80;28.50;;;;;;5048766;28;20590;-84
2021/03/03 11:56:25;;;;;;;10.45;5.88;;;15.80;27.60;;;;;;5050240;28;20233;-84
2021/03/03 11:58:52;;;;;;;13.45;6.45;;;15.60;28.30;;;;;;5050408;28;20259;-83
2021/03/03 12:01:19;;;;;;;12.40;5.82;;;15.50;28.30;;;;;;5048039;28;20233;-84
2021/03/03 12:03:47;;;;;;;12.30;5.95;;;15.20;28.00;;;;;;5043467;28;20549;-86
2021/03/03 12:06:13;;;;;;;11.18;5.50;;;15.10;27.90;;;;;;5035641;28;20680;-86
2021/03/03 12:08:40;;;;;;;9.95;6.10;;;15.00;27.90;;;;;;5038945;28;20195;-86
2021/03/03 12:11:06;;;;;;;8.88;5.97;;;15.10;28.00;;;;;;5036580;28;20720;-85
2021/03/03 12:13:33;;;;;;;10.20;6.00;;;15.10;28.00;;;;;;5046034;28;20190;-86
2021/03/03 12:15:59;;;;;;;10.68;5.85;;;15.10;28.00;;;;;;5042090;28;20228;-87
2021/03/03 12:18:26;;;;;;;11.38;5.80;;;15.20;28.30;;;;;;5043431;28;20198;-86
2021/03/03 12:20:54;;;;;;;10.77;5.93;;;15.10;28.00;;;;;;5039341;28;20229;-86
2021/03/03 12:23:20;;;;;;;9.88;5.68;;;15.40;28.20;;;;;;5039659;28;20226;-86
2021/03/03 12:25:46;;;;;;;8.88;5.53;;;15.60;28.30;;;;;;5049557;28;20238;-86
2021/03/03 12:28:13;;;;;;;10.52;5.90;;;15.70;28.40;;;;;;5049051;28;20614;-86
2021/03/03 12:30:39;;;;;;;7.50;5.55;;;15.70;28.40;;;;;;5045908;28;20706;-86
2021/03/03 12:33:05;;;;;;;9.02;5.65;;;15.80;28.50;;;;;;5041183;28;20199;-85
2021/03/03 12:35:33;;;;;;;17.35;6.60;;;15.80;28.50;;;;;;5045446;28;20217;-85
2021/03/03 12:37:59;;;;;;;9.13;5.72;;;15.80;28.50;;;;;;5047945;28;20212;-86
2021/03/03 12:40:25;;;;;;;9.10;5.47;;;15.40;28.20;;;;;;5043654;28;20723;-86
2021/03/03 12:42:52;;;;;;;12.70;5.88;;;15.50;28.30;;;;;;5041421;28;20205;-86
2021/03/03 12:45:18;;;;;;;7.78;4.75;;;15.30;28.10;;;;;;5037054;28;20230;-87
2021/03/03 12:47:45;;;;;;;11.48;5.38;;;15.30;28.10;;;;;;5044108;28;20198;-86
2021/03/03 12:50:14;;;;;;;8.13;5.45;;;15.40;28.20;;;;;;5043163;28;20672;-86
2021/03/03 12:52:42;;;;;;;13.00;5.43;;;15.60;28.40;;;;;;5047948;28;20204;-85
2021/03/03 12:55:09;;;;;;;9.50;6.00;;;15.70;28.40;;;;;;5040531;28;20279;-87
2021/03/03 12:57:35;;;;;;;9.75;5.60;;;15.50;28.30;;;;;;5041032;28;20202;-86